createdAt,value
2018-02-15T00:01:23.374Z,-2.30
2018-02-15T00:03:51.603Z,-2.40
2018-02-15T00:06:19.953Z,-2.30
2018-02-15T00:08:48.179Z,-2.40
2018-02-15T00:11:17.162Z,-2.40
2018-02-15T00:13:45.466Z,-2.40
2018-02-15T00:16:14.450Z,-2.40
2018-02-15T00:18:43.465Z,-2.40
2018-02-15T00:21:11.693Z,-2.50
2018-02-15T00:23:39.920Z,-2.50
2018-02-15T00:26:08.151Z,-2.50
2018-02-15T00:28:36.368Z,-2.50
2018-02-15T00:31:04.597Z,-2.50
2018-02-15T00:33:32.810Z,-2.50
2018-02-15T00:36:01.042Z,-2.50
2018-02-15T00:38:29.264Z,-2.50
2018-02-15T00:40:57.502Z,-2.40
2018-02-15T00:43:25.743Z,-2.50
2018-02-15T00:45:53.973Z,-2.40
2018-02-15T00:48:22.970Z,-2.40
2018-02-15T00:50:51.967Z,-2.40
2018-02-15T00:53:20.970Z,-2.30
2018-02-15T00:55:49.956Z,-2.30
2018-02-15T00:58:18.952Z,-2.20
2018-02-15T01:00:47.956Z,-2.20
2018-02-15T01:03:17.267Z,-2.20
2018-02-15T01:05:45.496Z,-2.30
2018-02-15T01:08:13.721Z,-2.20
2018-02-15T01:10:41.961Z,-2.20
2018-02-15T01:13:10.187Z,-2.20
2018-02-15T01:15:38.448Z,-2.20
2018-02-15T01:18:06.755Z,-2.20
2018-02-15T01:20:35.009Z,-2.20
2018-02-15T01:23:03.321Z,-2.20
2018-02-15T01:25:31.617Z,-2.20
2018-02-15T01:27:59.927Z,-2.10
2018-02-15T01:30:28.992Z,-2.00
2018-02-15T01:32:58.764Z,-2.10
2018-02-15T01:35:27.029Z,-2.10
2018-02-15T01:37:56.106Z,-2.00
2018-02-15T01:40:24.349Z,-2.10
2018-02-15T01:42:52.633Z,-2.00
2018-02-15T01:45:20.939Z,-2.00
2018-02-15T01:47:50.004Z,-2.00
2018-02-15T01:50:18.281Z,-2.00
2018-02-15T01:52:46.558Z,-2.00
2018-02-15T01:55:14.870Z,-2.00
2018-02-15T01:57:43.917Z,-1.90
2018-02-15T02:00:12.220Z,-2.00
2018-02-15T02:02:40.483Z,-1.90
2018-02-15T02:05:08.758Z,-1.90
2018-02-15T02:07:37.137Z,-1.80
2018-02-15T02:10:05.440Z,-1.80
2018-02-15T02:12:33.804Z,-1.80
2018-02-15T02:15:02.112Z,-1.80
2018-02-15T02:17:31.146Z,-1.80
2018-02-15T02:19:59.389Z,-1.80
2018-02-15T02:22:28.428Z,-1.70
2018-02-15T02:24:56.730Z,-1.80
2018-02-15T02:27:25.025Z,-1.70
2018-02-15T02:29:54.205Z,-1.80
2018-02-15T02:32:22.470Z,-1.80
2018-02-15T02:34:50.745Z,-1.70
2018-02-15T02:37:19.050Z,-1.80
2018-02-15T02:39:47.305Z,-1.70
2018-02-15T02:42:15.603Z,-1.70
2018-02-15T02:44:43.874Z,-1.70
2018-02-15T02:47:12.169Z,-1.70
2018-02-15T02:49:40.435Z,-1.70
2018-02-15T02:52:09.456Z,-1.70
2018-02-15T02:54:37.717Z,-1.70
2018-02-15T02:57:06.798Z,-1.70
2018-02-15T02:59:35.067Z,-1.70
2018-02-15T03:02:03.383Z,-1.70
2018-02-15T03:04:31.679Z,-1.70
2018-02-15T03:06:59.975Z,-1.60
2018-02-15T03:09:28.228Z,-1.60
2018-02-15T03:11:56.480Z,-1.60
2018-02-15T03:14:25.510Z,-1.50
2018-02-15T03:16:53.773Z,-1.50
2018-02-15T03:19:23.037Z,-1.40
2018-02-15T03:21:51.311Z,-1.40
2018-02-15T03:24:19.554Z,-1.30
2018-02-15T03:26:47.859Z,-1.20
2018-02-15T03:29:16.157Z,-1.20
2018-02-15T03:31:45.204Z,-1.10
2018-02-15T03:34:13.461Z,-1.10
2018-02-15T03:36:41.764Z,-1.00
2018-02-15T03:39:10.007Z,-1.00
2018-02-15T03:41:38.333Z,-0.90
2018-02-15T03:44:06.570Z,-0.90
2018-02-15T03:46:34.816Z,-0.80
2018-02-15T03:49:03.866Z,-0.60
2018-02-15T03:51:32.157Z,-0.60
2018-02-15T03:54:00.480Z,-0.60
2018-02-15T03:56:28.772Z,-0.50
2018-02-15T03:58:57.044Z,-0.50
2018-02-15T04:01:25.303Z,-0.40
2018-02-15T04:03:54.365Z,-0.30
2018-02-15T04:06:22.679Z,-0.30
2018-02-15T04:08:51.698Z,-0.20
2018-02-15T04:11:20.024Z,-0.30
2018-02-15T04:13:48.328Z,-0.20
2018-02-15T04:16:17.416Z,-0.20
2018-02-15T04:18:46.432Z,-0.20
2018-02-15T04:21:14.705Z,-0.20
2018-02-15T04:23:43.006Z,-0.20
2018-02-15T04:26:11.245Z,-0.10
2018-02-15T04:28:40.311Z,-0.10
2018-02-15T04:31:08.604Z,0.00
2018-02-15T04:33:36.859Z,0.00
2018-02-15T04:36:05.913Z,0.10
2018-02-15T04:38:34.218Z,0.00
2018-02-15T04:41:02.462Z,0.10
2018-02-15T04:43:30.748Z,0.10
2018-02-15T04:45:59.008Z,0.10
2018-02-15T04:48:27.298Z,0.10
2018-02-15T04:50:55.546Z,0.20
2018-02-15T04:53:24.569Z,0.20
2018-02-15T04:55:52.847Z,0.20
2018-02-15T04:58:21.140Z,0.20
2018-02-15T05:00:49.393Z,0.20
2018-02-15T05:03:17.654Z,0.20
2018-02-15T05:05:46.679Z,0.20
2018-02-15T05:08:14.934Z,0.20
2018-02-15T05:10:43.979Z,0.20
2018-02-15T05:13:13.059Z,0.20
2018-02-15T05:15:41.350Z,0.20
2018-02-15T05:18:09.593Z,0.20
2018-02-15T05:20:37.922Z,0.20
2018-02-15T05:23:06.210Z,0.20
2018-02-15T05:25:34.526Z,0.30
2018-02-15T05:28:02.783Z,0.30
2018-02-15T05:30:31.792Z,0.30
2018-02-15T05:33:00.067Z,0.30
2018-02-15T05:35:28.321Z,0.30
2018-02-15T05:37:57.338Z,0.30
2018-02-15T05:40:28.506Z,0.30
2018-02-15T05:42:56.822Z,0.30
2018-02-15T05:45:25.106Z,0.30
2018-02-15T05:47:53.437Z,0.40
2018-02-15T05:50:21.673Z,0.40
2018-02-15T05:52:50.717Z,0.40
2018-02-15T05:55:18.984Z,0.40
2018-02-15T05:57:47.629Z,0.40
2018-02-15T06:00:16.660Z,0.50
2018-02-15T06:02:44.939Z,0.50
2018-02-15T06:05:13.247Z,0.50
2018-02-15T06:07:41.527Z,0.60
2018-02-15T06:10:09.825Z,0.60
2018-02-15T06:12:38.057Z,0.60
2018-02-15T06:15:06.390Z,0.60
2018-02-15T06:17:34.628Z,0.70
2018-02-15T06:20:02.916Z,0.70
2018-02-15T06:22:31.240Z,0.80
2018-02-15T06:24:59.528Z,0.80
2018-02-15T06:27:27.845Z,0.80
2018-02-15T06:29:56.136Z,0.90
2018-02-15T06:32:24.420Z,0.90
2018-02-15T06:34:52.694Z,0.90
2018-02-15T06:37:20.950Z,0.90
2018-02-15T06:39:49.217Z,0.90
2018-02-15T06:42:17.516Z,1.00
2018-02-15T06:44:45.868Z,1.00
2018-02-15T06:47:14.167Z,1.00
2018-02-15T06:49:42.467Z,1.00
2018-02-15T06:52:10.766Z,1.10
2018-02-15T06:54:39.858Z,1.10
2018-02-15T06:57:08.852Z,1.10
2018-02-15T06:59:37.900Z,1.20
2018-02-15T07:02:06.202Z,1.10
2018-02-15T07:04:34.444Z,1.20
2018-02-15T07:07:02.705Z,1.10
2018-02-15T07:09:30.985Z,1.10
2018-02-15T07:11:59.474Z,1.10
2018-02-15T07:14:27.777Z,1.10
2018-02-15T07:16:56.016Z,1.20
2018-02-15T07:19:24.280Z,1.20
2018-02-15T07:21:52.573Z,1.20
2018-02-15T07:24:20.828Z,1.20
2018-02-15T07:26:49.155Z,1.30
2018-02-15T07:29:17.422Z,1.30
2018-02-15T07:31:45.718Z,1.40
2018-02-15T07:34:13.995Z,1.40
2018-02-15T07:36:42.295Z,1.40
2018-02-15T07:39:10.577Z,1.40
2018-02-15T07:41:38.871Z,1.50
2018-02-15T07:44:07.110Z,1.40
2018-02-15T07:46:35.416Z,1.40
2018-02-15T07:49:04.433Z,1.40
2018-02-15T07:51:32.677Z,1.40
2018-02-15T07:54:01.015Z,1.40
2018-02-15T07:56:29.271Z,1.40
2018-02-15T07:58:57.536Z,1.30
2018-02-15T08:01:25.804Z,1.30
2018-02-15T08:03:54.115Z,1.40
2018-02-15T08:06:22.453Z,1.40
2018-02-15T08:08:51.123Z,1.30
2018-02-15T08:11:19.409Z,1.40
2018-02-15T08:13:47.685Z,1.40
2018-02-15T08:16:16.701Z,1.60
2018-02-15T08:18:44.984Z,1.60
2018-02-15T08:21:13.233Z,1.70
2018-02-15T08:23:42.257Z,1.80
2018-02-15T08:26:10.565Z,1.70
2018-02-15T08:28:38.828Z,1.70
2018-02-15T08:31:07.151Z,1.70
2018-02-15T08:33:35.400Z,1.60
2018-02-15T08:36:03.688Z,1.60
2018-02-15T08:38:31.978Z,1.60
2018-02-15T08:41:00.228Z,1.50
2018-02-15T08:43:28.477Z,1.40
2018-02-15T08:45:56.751Z,1.40
2018-02-15T08:48:25.019Z,1.50
2018-02-15T08:50:53.253Z,1.50
2018-02-15T08:53:21.521Z,1.60
2018-02-15T08:55:49.812Z,1.70
2018-02-15T08:58:18.045Z,1.70
2018-02-15T09:00:46.331Z,1.80
2018-02-15T09:03:14.629Z,1.80
2018-02-15T09:05:42.881Z,1.80
2018-02-15T09:08:11.174Z,1.90
2018-02-15T09:10:39.422Z,2.00
2018-02-15T09:13:07.671Z,2.00
2018-02-15T09:15:36.776Z,2.10
2018-02-15T09:18:04.987Z,2.10
2018-02-15T09:20:33.260Z,2.10
2018-02-15T09:23:01.517Z,2.10
2018-02-15T09:25:29.819Z,2.10
2018-02-15T09:27:58.126Z,2.20
2018-02-15T09:30:26.353Z,2.30
2018-02-15T09:32:54.668Z,2.50
2018-02-15T09:35:22.938Z,2.50
2018-02-15T09:37:51.240Z,2.50
2018-02-15T09:40:19.509Z,2.50
2018-02-15T09:42:47.791Z,2.60
2018-02-15T09:45:16.087Z,2.60
2018-02-15T09:47:44.323Z,2.70
2018-02-15T09:50:12.624Z,2.70
2018-02-15T09:52:40.854Z,2.60
2018-02-15T09:55:09.109Z,2.60
2018-02-15T09:57:38.168Z,2.60
2018-02-15T10:00:06.471Z,2.60
2018-02-15T10:02:35.519Z,2.70
2018-02-15T10:05:03.751Z,2.70
2018-02-15T10:07:32.807Z,2.80
2018-02-15T10:10:01.043Z,2.70
2018-02-15T10:12:29.332Z,2.70
2018-02-15T10:14:57.628Z,2.70
2018-02-15T10:17:25.932Z,2.70
2018-02-15T10:19:54.172Z,2.70
2018-02-15T10:22:22.438Z,2.80
2018-02-15T10:24:50.716Z,2.80
2018-02-15T10:27:18.961Z,2.80
2018-02-15T10:29:47.224Z,2.90
2018-02-15T10:32:15.498Z,3.00
2018-02-15T10:34:43.797Z,2.90
2018-02-15T10:37:12.083Z,2.90
2018-02-15T10:39:40.340Z,3.00
2018-02-15T10:42:09.389Z,3.10
2018-02-15T10:44:37.680Z,3.10
2018-02-15T10:47:05.924Z,3.20
2018-02-15T10:49:34.218Z,3.10
2018-02-15T10:52:02.500Z,3.20
2018-02-15T10:54:30.720Z,3.20
2018-02-15T10:56:59.784Z,3.10
2018-02-15T10:59:28.022Z,3.10
2018-02-15T11:02:02.021Z,3.10
2018-02-15T11:04:34.332Z,3.10
2018-02-15T11:07:02.615Z,3.10
2018-02-15T11:09:30.872Z,3.10
2018-02-15T11:11:59.164Z,3.00
2018-02-15T11:14:27.446Z,2.90
2018-02-15T11:16:55.723Z,2.90
2018-02-15T11:19:23.976Z,3.00
2018-02-15T11:21:52.211Z,3.10
2018-02-15T11:24:21.241Z,3.10
2018-02-15T11:26:49.482Z,3.10
2018-02-15T11:29:17.818Z,3.20
2018-02-15T11:31:46.056Z,3.20
2018-02-15T11:34:14.299Z,3.10
2018-02-15T11:36:42.573Z,3.10
2018-02-15T11:39:10.856Z,3.20
2018-02-15T11:41:39.132Z,3.20
2018-02-15T11:44:07.393Z,3.20
2018-02-15T11:46:35.633Z,3.20
2018-02-15T11:49:03.940Z,3.30
2018-02-15T11:51:32.185Z,3.30
2018-02-15T11:54:00.787Z,3.30
2018-02-15T11:56:29.055Z,3.40
2018-02-15T11:58:57.319Z,3.40
2018-02-15T12:01:25.562Z,3.30
2018-02-15T12:03:53.852Z,3.40
2018-02-15T12:06:22.924Z,3.40
2018-02-15T12:08:51.171Z,3.40
2018-02-15T12:11:19.418Z,3.30
2018-02-15T12:13:47.704Z,3.30
2018-02-15T12:16:15.959Z,3.30
2018-02-15T12:18:44.243Z,3.30
2018-02-15T12:21:12.511Z,3.20
2018-02-15T12:23:40.753Z,3.30
2018-02-15T12:26:09.031Z,3.30
2018-02-15T12:28:37.281Z,3.40
2018-02-15T12:31:05.559Z,3.40
2018-02-15T12:33:33.802Z,3.50
2018-02-15T12:36:02.100Z,3.50
2018-02-15T12:38:30.374Z,3.60
2018-02-15T12:40:58.623Z,3.60
2018-02-15T12:43:26.916Z,3.70
2018-02-15T12:45:55.164Z,3.80
2018-02-15T12:48:24.209Z,3.80
2018-02-15T12:50:52.471Z,3.80
2018-02-15T12:53:20.713Z,3.80
2018-02-15T12:55:48.995Z,3.80
2018-02-15T12:58:18.021Z,3.80
2018-02-15T13:00:46.262Z,3.80
2018-02-15T13:03:15.323Z,3.80
2018-02-15T13:05:43.556Z,3.80
2018-02-15T13:08:11.869Z,3.80
2018-02-15T13:10:40.150Z,3.80
2018-02-15T13:13:35.180Z,3.70
2018-02-15T13:16:15.272Z,3.70
2018-02-15T13:18:43.567Z,3.80
2018-02-15T13:21:11.812Z,3.70
2018-02-15T13:23:40.840Z,3.80
2018-02-15T13:26:09.126Z,3.80
2018-02-15T13:28:38.333Z,3.80
2018-02-15T13:31:06.632Z,3.80
2018-02-15T13:33:34.869Z,3.80
2018-02-15T13:36:03.179Z,3.70
2018-02-15T13:38:31.442Z,3.50
2018-02-15T13:40:59.803Z,3.30
2018-02-15T13:43:29.475Z,3.00
2018-02-15T13:45:58.493Z,3.00
2018-02-15T13:48:26.750Z,2.90
2018-02-15T13:50:55.816Z,2.80
2018-02-15T13:53:24.145Z,2.80
2018-02-15T13:55:52.372Z,2.70
2018-02-15T13:58:20.713Z,2.60
2018-02-15T14:00:48.987Z,2.60
2018-02-15T14:03:17.236Z,2.60
2018-02-15T14:05:46.254Z,2.50
2018-02-15T14:08:14.532Z,2.50
2018-02-15T14:10:42.851Z,2.50
2018-02-15T14:13:11.156Z,2.40
2018-02-15T14:15:40.211Z,2.40
2018-02-15T14:18:08.501Z,2.40
2018-02-15T14:20:36.783Z,2.40
2018-02-15T14:23:05.045Z,2.40
2018-02-15T14:25:33.317Z,2.50
2018-02-15T14:28:01.622Z,2.40
2018-02-15T14:30:29.860Z,2.40
2018-02-15T14:32:58.140Z,2.50
2018-02-15T14:35:26.398Z,2.40
2018-02-15T14:37:54.689Z,2.30
2018-02-15T14:40:22.954Z,2.20
2018-02-15T14:42:51.178Z,2.20
2018-02-15T14:45:19.487Z,2.10
2018-02-15T14:47:47.716Z,2.20
2018-02-15T14:50:16.027Z,2.20
2018-02-15T14:52:45.041Z,2.00
2018-02-15T14:55:13.363Z,2.00
2018-02-15T14:57:41.612Z,2.10
2018-02-15T15:00:09.849Z,2.00
2018-02-15T15:02:38.911Z,1.90
2018-02-15T15:05:07.184Z,2.00
2018-02-15T15:07:35.428Z,2.00
2018-02-15T15:10:03.676Z,2.00
2018-02-15T15:12:32.755Z,2.10
2018-02-15T15:15:01.783Z,2.20
2018-02-15T15:17:30.083Z,2.20
2018-02-15T15:19:58.321Z,2.20
2018-02-15T15:22:26.609Z,2.20
2018-02-15T15:24:55.678Z,2.20
2018-02-15T15:27:23.968Z,2.20
2018-02-15T15:29:52.288Z,2.30
2018-02-15T15:32:20.517Z,2.30
2018-02-15T15:34:49.536Z,2.30
2018-02-15T15:37:17.832Z,2.30
2018-02-15T15:39:46.114Z,2.30
2018-02-15T15:42:14.427Z,2.30
2018-02-15T15:44:42.674Z,2.20
2018-02-15T15:47:10.962Z,2.20
2018-02-15T15:49:39.242Z,2.20
2018-02-15T15:52:07.489Z,2.10
2018-02-15T15:54:35.766Z,2.10
2018-02-15T15:57:04.081Z,2.10
2018-02-15T15:59:32.401Z,2.10
2018-02-15T16:02:01.450Z,2.00
2018-02-15T16:04:29.772Z,2.00
2018-02-15T16:06:58.037Z,2.00
2018-02-15T16:09:27.045Z,2.00
2018-02-15T16:11:56.109Z,2.10
2018-02-15T16:14:24.395Z,2.10
2018-02-15T16:16:52.696Z,2.10
2018-02-15T16:19:21.729Z,2.10
2018-02-15T16:21:50.056Z,2.00
2018-02-15T16:24:18.331Z,2.00
2018-02-15T16:42:01.927Z,2.10
2018-02-15T16:44:31.873Z,2.00
2018-02-15T16:47:00.141Z,2.00
2018-02-15T16:49:29.247Z,2.00
2018-02-15T16:51:59.361Z,2.00
2018-02-15T16:54:27.661Z,2.00
2018-02-15T16:56:56.752Z,1.90
2018-02-15T16:59:25.054Z,2.00
2018-02-15T17:01:53.313Z,2.10
2018-02-15T17:04:22.337Z,2.10
2018-02-15T17:06:50.624Z,2.20
2018-02-15T17:09:18.925Z,2.20
2018-02-15T17:11:47.193Z,2.20
2018-02-15T17:14:15.528Z,2.30
2018-02-15T17:16:43.853Z,2.40
2018-02-15T17:19:12.092Z,2.30
2018-02-15T17:21:40.357Z,2.40
2018-02-15T17:24:09.419Z,2.40
2018-02-15T17:26:37.685Z,2.40
2018-02-15T17:29:05.926Z,2.40
2018-02-15T17:31:34.249Z,2.50
2018-02-15T17:34:02.526Z,2.60
2018-02-15T17:36:31.718Z,2.60
2018-02-15T17:38:59.998Z,2.60
2018-02-15T17:41:28.289Z,2.70
2018-02-15T17:43:56.654Z,2.70
2018-02-15T17:46:24.882Z,2.70
2018-02-15T17:48:53.516Z,2.70
2018-02-15T17:51:21.813Z,2.90
2018-02-15T17:53:50.101Z,2.90
2018-02-15T17:56:18.416Z,2.90
2018-02-15T17:58:46.688Z,2.90
2018-02-15T18:01:14.943Z,2.90
2018-02-15T18:03:43.965Z,2.90
2018-02-15T18:06:12.246Z,2.90
2018-02-15T18:08:41.335Z,2.80
2018-02-15T18:14:59.851Z,2.90
2018-02-15T18:17:28.153Z,2.90
2018-02-15T18:19:56.405Z,2.90
2018-02-15T18:22:24.677Z,2.90
2018-02-15T18:24:52.985Z,3.00
2018-02-15T18:27:21.294Z,3.00
2018-02-15T18:29:49.618Z,3.00
2018-02-15T18:32:17.856Z,3.00
2018-02-15T18:34:46.127Z,3.00
2018-02-15T18:37:14.415Z,3.00
2018-02-15T18:39:42.705Z,3.00
2018-02-15T18:42:10.968Z,3.00
2018-02-15T18:44:39.247Z,3.10
2018-02-15T18:47:07.574Z,3.10
2018-02-15T18:49:35.860Z,3.10
2018-02-15T18:52:04.144Z,3.20
2018-02-15T18:54:33.153Z,3.20
2018-02-15T18:57:01.606Z,3.10
2018-02-15T18:59:30.573Z,3.20
2018-02-15T19:02:00.025Z,3.20
2018-02-15T19:04:28.319Z,3.20
2018-02-15T19:06:56.566Z,3.20
2018-02-15T19:09:25.613Z,3.30
2018-02-15T19:11:53.904Z,3.20
2018-02-15T19:14:22.186Z,3.30
2018-02-15T19:16:50.440Z,3.30
2018-02-15T19:19:18.729Z,3.30
2018-02-15T19:21:47.063Z,3.40
2018-02-15T19:24:16.105Z,3.40
2018-02-15T19:26:44.354Z,3.40
2018-02-15T19:29:12.645Z,3.40
2018-02-15T19:31:40.945Z,3.40
2018-02-15T19:34:09.199Z,3.40
2018-02-15T19:36:37.450Z,3.40
2018-02-15T19:39:05.759Z,3.40
2018-02-15T19:41:33.987Z,3.50
2018-02-15T19:44:03.023Z,3.50
2018-02-15T19:46:31.303Z,3.40
2018-02-15T19:48:59.556Z,3.50
2018-02-15T19:51:28.597Z,3.40
2018-02-15T19:53:56.842Z,3.40
2018-02-15T19:56:25.097Z,3.50
2018-02-15T19:58:53.457Z,3.50
2018-02-15T20:01:21.723Z,3.50
2018-02-15T20:03:50.106Z,3.50
2018-02-15T20:06:18.404Z,3.50
2018-02-15T20:08:47.482Z,3.50
2018-02-15T20:11:15.774Z,3.40
2018-02-15T20:13:44.825Z,3.50
2018-02-15T20:16:13.103Z,3.40
2018-02-15T20:18:41.383Z,3.50
2018-02-15T20:21:09.651Z,3.50
2018-02-15T20:23:37.955Z,3.50
2018-02-15T20:26:11.986Z,3.50
2018-02-15T20:28:41.015Z,3.50
2018-02-15T20:31:10.818Z,3.50
2018-02-15T20:33:39.116Z,3.50
2018-02-15T20:36:07.382Z,3.50
2018-02-15T20:38:41.310Z,3.50
2018-02-15T20:41:09.585Z,3.50
2018-02-15T20:43:37.863Z,3.50
2018-02-15T20:46:06.090Z,3.60
2018-02-15T20:48:35.149Z,3.60
2018-02-15T20:51:09.055Z,3.50
2018-02-15T20:53:42.829Z,3.60
2018-02-15T20:56:11.104Z,3.50
2018-02-15T20:58:39.392Z,3.50
2018-02-15T21:01:07.643Z,3.50
2018-02-15T21:03:35.895Z,3.60
2018-02-15T21:06:04.220Z,3.60
2018-02-15T21:08:32.455Z,3.60
2018-02-15T21:11:01.490Z,3.60
2018-02-15T21:13:29.726Z,3.60
2018-02-15T21:15:58.749Z,3.60
2018-02-15T21:18:27.023Z,3.60
2018-02-15T21:20:55.265Z,3.60
2018-02-15T21:23:23.530Z,3.60
2018-02-15T21:25:52.454Z,3.60
2018-02-15T21:28:21.504Z,3.60
2018-02-15T21:30:49.802Z,3.60
2018-02-15T21:33:18.110Z,3.70
2018-02-15T21:35:47.181Z,3.70
2018-02-15T21:38:15.410Z,3.60
2018-02-15T21:40:43.729Z,3.70
2018-02-15T21:43:11.972Z,3.70
2018-02-15T21:45:40.981Z,3.70
2018-02-15T21:48:09.289Z,3.70
2018-02-15T21:50:37.515Z,3.70
2018-02-15T21:53:05.876Z,3.70
2018-02-15T21:55:34.921Z,3.70
2018-02-15T21:58:03.202Z,3.70
2018-02-15T22:00:31.432Z,3.80
2018-02-15T22:02:59.762Z,3.80
2018-02-15T22:05:28.018Z,3.80
2018-02-15T22:07:56.253Z,3.80
2018-02-15T22:10:24.584Z,3.70
2018-02-15T22:12:52.822Z,3.80
2018-02-15T22:15:21.080Z,3.70
2018-02-15T22:17:49.341Z,3.80
2018-02-15T22:20:18.415Z,3.80
2018-02-15T22:22:46.692Z,3.80
2018-02-15T22:25:14.973Z,3.80
2018-02-15T22:27:43.269Z,3.80
2018-02-15T22:30:12.280Z,3.80
2018-02-15T22:32:40.589Z,3.80
2018-02-15T22:35:08.871Z,3.80
2018-02-15T22:37:37.162Z,3.80
2018-02-15T22:40:05.452Z,3.80
2018-02-15T22:42:33.756Z,3.80
2018-02-15T22:45:03.397Z,3.80
2018-02-15T22:47:31.673Z,3.80
2018-02-15T22:49:59.928Z,3.80
2018-02-15T22:52:28.224Z,3.80
2018-02-15T22:54:56.477Z,3.80
2018-02-15T22:57:24.767Z,3.80
2018-02-15T22:59:53.048Z,3.80
2018-02-15T23:02:21.287Z,3.80
2018-02-15T23:04:50.345Z,3.80
2018-02-15T23:07:18.587Z,3.80
2018-02-15T23:09:46.885Z,3.80
2018-02-15T23:12:15.195Z,3.80
2018-02-15T23:14:43.476Z,3.80
2018-02-15T23:17:11.752Z,3.80
2018-02-15T23:19:40.012Z,3.80
2018-02-15T23:22:08.266Z,3.80
2018-02-15T23:24:36.581Z,3.80
2018-02-15T23:27:06.319Z,3.80
2018-02-15T23:29:35.398Z,3.80
2018-02-15T23:32:03.663Z,3.80
2018-02-15T23:34:31.895Z,3.90
2018-02-15T23:37:00.201Z,3.80
2018-02-15T23:39:28.479Z,3.80
2018-02-15T23:41:56.729Z,3.80
2018-02-15T23:44:25.011Z,3.80
2018-02-15T23:46:53.314Z,3.80
2018-02-15T23:49:21.559Z,3.80
2018-02-15T23:51:49.858Z,3.80
2018-02-15T23:54:18.134Z,3.80
2018-02-15T23:56:47.168Z,3.80
2018-02-15T23:59:15.464Z,3.80
